Startpagina
METAR-TAF:

METAR-TAF

Vliegvelden :

Paraguaná, Venezuela

breedte: 11-47N, lengte: 070-09W, hoogte: 23 m

METAR: ontbreekt

Tijdstip: 04:19 (08:19 UTC)

Verwachting

Dit bericht is 4 uur en het 19 minuten geleden gemaakt, om 04:00 UTC
Verwachting geldig van 21 om 06 UTC tot 22 om 06 UTC
Wind 4 kt uit het noordoosten
Zicht 10 km of meer
Verspreide wolken op 1600 ft
Wijzigt naar
van 21 om 06 UTC tot 21 om 10 UTC
Zicht 10 km of meer
Gebroken wolken op 1600 ft

TAF: SVJC 210400Z 2106/2206 05004KT 9999 SCT016 TX33/19Z TN23/09Z BECMG 2106/2110 270G15KT 9999 BKN016

Waarnemingen en weersverwachtingen van meer dan 4000 vliegvelden (METAR en TAF).

De beschikbare stations zijn de gele en rode punten op de kaart.

Ga met uw muis naar het station om de naam te zien.

Klik dan om waarnemingen en weersverwachtingen te zien.

kaart wijzigen: klik op de groene knoppen met een zwart kruis om in te zoomen, op de groene knop met een streepje om uit te zoomen of op de groene pijlen voor aangrenzende kaarten.


METAR-TAF: